Time;durP1;ratioP1;P1;durP2;ratioP2;P2;SDS_P1;SDS_P2;PMS_P1;PMS_P2;Temp;Humidity;BMP_temperature;BMP_pressure;BME280_temperature;BME280_humidity;BME280_pressure;Samples;Min_cycle;Max_cycle;Signal;HPM_P1;HPM_P2
2021/12/17 00:05:08;;;;;;;82.60;35.83;;;;;;;1.22;100.00;98305.44;4940298;29;20094;-83
2021/12/17 00:07:35;;;;;;;81.20;36.33;;;;;;;1.28;100.00;98297.44;4937086;29;20032;-82
2021/12/17 00:10:07;;;;;;;84.28;37.63;;;;;;;1.33;100.00;98308.78;4936861;29;20114;-82
2021/12/17 00:12:33;;;;;;;;;;;;;;;1.44;100.00;98313.91;4920491;29;20031;-84
2021/12/17 00:14:58;;;;;;;92.30;41.53;;;;;;;1.37;100.00;98317.53;4936886;29;20054;-82
2021/12/17 00:17:29;;;;;;;93.43;40.80;;;;;;;1.23;100.00;98322.97;4932935;29;20027;-82
2021/12/17 00:52:22;;;;;;;67.03;31.75;;;;;;;1.96;100.00;98283.25;4937523;29;20063;-82
2021/12/17 00:54:48;;;;;;;70.75;32.65;;;;;;;2.05;100.00;98290.13;4931840;28;20066;-83
2021/12/17 00:57:18;;;;;;;63.85;30.30;;;;;;;1.97;100.00;98278.84;4939796;28;20046;-82
2021/12/17 00:59:46;;;;;;;64.13;30.13;;;;;;;1.89;100.00;98260.50;4969082;28;20487;-81
2021/12/17 01:02:16;;;;;;;53.75;28.20;;;;;;;1.88;100.00;98274.56;4942685;28;20034;-81
2021/12/17 01:04:49;;;;;;;54.20;26.90;;;;;;;1.78;100.00;98277.41;4955913;28;20053;-82
2021/12/17 01:07:15;;;;;;;52.67;25.30;;;;;;;1.54;100.00;98253.13;4955335;28;20034;-83
2021/12/17 01:09:41;;;;;;;52.38;26.60;;;;;;;1.53;100.00;98261.94;4945792;28;20214;-82
2021/12/17 01:12:07;;;;;;;52.47;25.80;;;;;;;1.68;100.00;98270.50;4951585;28;20047;-82
2021/12/17 01:14:34;;;;;;;49.80;25.60;;;;;;;1.44;100.00;98241.00;4936346;28;20054;-82
2021/12/17 01:17:01;;;;;;;56.72;26.05;;;;;;;1.55;100.00;98249.63;4945310;28;20542;-82
2021/12/17 01:19:47;;;;;;;54.00;26.88;;;;;;;1.55;100.00;98244.34;4931182;28;20458;-82
2021/12/17 01:25:06;;;;;;;85.70;41.78;;;;;;;1.71;100.00;98244.09;4964497;28;20041;-82
2021/12/17 01:35:45;;;;;;;73.28;34.05;;;;;;;1.43;100.00;98230.47;4969424;28;20406;-83
2021/12/17 01:43:13;;;;;;;71.63;34.83;;;;;;;1.58;100.00;98244.28;4945466;28;20046;-83
2021/12/17 01:45:41;;;;;;;74.50;35.88;;;;;;;1.54;100.00;98237.31;4961494;28;20035;-82
2021/12/17 01:48:11;;;;;;;71.65;32.63;;;;;;;1.65;100.00;98245.06;4951092;28;20041;-84
2021/12/17 01:56:39;;;;;;;66.00;31.77;;;;;;;1.70;100.00;98237.94;4942185;29;20101;-86
2021/12/17 01:59:35;;;;;;;72.03;34.40;;;;;;;1.66;100.00;98238.03;4951959;28;20031;-87
2021/12/17 02:02:01;;;;;;;72.05;33.85;;;;;;;1.74;100.00;98247.56;4981783;28;20422;-87
2021/12/17 02:04:27;;;;;;;78.63;34.88;;;;;;;1.78;100.00;98258.94;4946133;28;20038;-88
2021/12/17 02:06:53;;;;;;;72.72;34.42;;;;;;;1.68;100.00;98244.16;4963698;28;20031;-86
2021/12/17 02:28:58;;;;;;;73.47;36.20;;;;;;;1.20;100.00;98265.03;4969227;28;20038;-87
2021/12/17 02:31:27;;;;;;;78.90;34.85;;;;;;;1.01;100.00;98245.13;4950204;28;20039;-86
2021/12/17 02:34:01;;;;;;;82.22;38.17;;;;;;;1.02;100.00;98247.72;4948754;28;20027;-86
2021/12/17 02:36:31;;;;;;;69.43;34.03;;;;;;;1.01;100.00;98250.41;4947554;28;20030;-87
2021/12/17 02:47:11;;;;;;;60.20;30.52;;;;;;;1.06;100.00;98248.56;4966405;28;20414;-86
2021/12/17 02:49:38;;;;;;;63.58;31.83;;;;;;;1.06;100.00;98238.91;4946951;28;20035;-86
2021/12/17 02:52:08;;;;;;;63.20;30.95;;;;;;;1.04;100.00;98224.00;4945926;28;20033;-85
2021/12/17 02:54:35;;;;;;;73.93;33.25;;;;;;;1.22;100.00;98251.84;4945611;28;20514;-87
2021/12/17 02:57:02;;;;;;;69.40;32.55;;;;;;;1.06;100.00;98206.41;4947912;28;20026;-86
2021/12/17 02:59:28;;;;;;;71.72;34.80;;;;;;;1.20;100.00;98220.25;4961678;28;20062;-86
2021/12/17 03:01:54;;;;;;;66.28;32.55;;;;;;;1.41;100.00;98235.78;4945796;28;20089;-86
2021/12/17 03:04:20;;;;;;;67.72;32.60;;;;;;;1.33;100.00;98220.94;4947040;28;20038;-86
2021/12/17 03:06:46;;;;;;;65.13;32.00;;;;;;;1.39;100.00;98226.13;4949722;28;20513;-87
2021/12/17 03:09:12;;;;;;;56.38;29.65;;;;;;;1.45;100.00;98236.56;4955448;28;20030;-87
2021/12/17 03:11:38;;;;;;;63.45;31.75;;;;;;;1.33;100.00;98227.09;4949998;28;20126;-86
2021/12/17 03:14:05;;;;;;;62.97;32.40;;;;;;;1.22;100.00;98223.75;4961001;28;20034;-85
2021/12/17 03:16:37;;;;;;;69.75;31.92;;;;;;;1.33;100.00;98216.56;4944355;28;20022;-85
2021/12/17 03:19:11;;;;;;;67.60;31.83;;;;;;;1.34;100.00;98210.41;4944655;28;20030;-86
2021/12/17 03:24:22;;;;;;;76.97;34.20;;;;;;;1.23;100.00;98179.84;4971980;28;20045;-86
2021/12/17 03:26:47;;;;;;;67.20;28.85;;;;;;;1.51;100.00;98199.59;4943221;28;20035;-87
2021/12/17 03:29:14;;;;;;;70.45;29.05;;;;;;;1.53;100.00;98187.28;4944363;28;20037;-86
2021/12/17 03:31:40;;;;;;;58.30;27.48;;;;;;;1.52;100.00;98183.75;4960420;28;20081;-87
2021/12/17 03:34:19;;;;;;;72.22;32.60;;;;;;;1.53;100.00;98182.88;4943927;28;20038;-85
2021/12/17 03:36:53;;;;;;;58.88;29.60;;;;;;;1.45;100.00;98191.78;4946274;28;20030;-85
2021/12/17 03:39:21;;;;;;;63.55;29.17;;;;;;;1.33;100.00;98170.88;4949660;28;20034;-88
2021/12/17 03:41:50;;;;;;;77.13;32.17;;;;;;;1.37;100.00;98197.19;4953937;28;20106;-86
2021/12/17 03:44:17;;;;;;;75.72;31.67;;;;;;;1.46;100.00;98191.75;4946540;28;20110;-86
2021/12/17 03:46:45;;;;;;;60.20;29.33;;;;;;;1.49;100.00;98189.09;4944820;28;20039;-86
2021/12/17 03:49:11;;;;;;;65.80;30.55;;;;;;;1.46;100.00;98202.31;4945374;28;20058;-87
2021/12/17 03:51:47;;;;;;;66.20;32.03;;;;;;;1.37;100.00;98202.44;4945829;28;20502;-85
2021/12/17 03:54:13;;;;;;;72.20;34.55;;;;;;;1.53;100.00;98208.34;4945084;28;20106;-85
2021/12/17 03:56:38;;;;;;;73.68;34.35;;;;;;;1.48;100.00;98205.78;4943567;28;20425;-86
2021/12/17 03:59:10;;;;;;;62.55;30.65;;;;;;;1.47;100.00;98201.41;4952572;28;20039;-85
2021/12/17 04:01:36;;;;;;;70.30;32.78;;;;;;;1.57;100.00;98189.81;4945342;28;20042;-86
2021/12/17 04:04:02;;;;;;;64.07;30.83;;;;;;;1.55;100.00;98188.97;4944039;28;20023;-85
2021/12/17 04:06:27;;;;;;;64.95;32.30;;;;;;;1.45;100.00;98178.59;4952513;28;20037;-87
2021/12/17 04:08:55;;;;;;;66.40;32.45;;;;;;;1.55;100.00;98175.81;4943898;28;20027;-85
2021/12/17 04:11:20;;;;;;;66.82;31.50;;;;;;;1.54;100.00;98160.88;4964929;28;20026;-86
2021/12/17 04:13:53;;;;;;;86.20;40.58;;;;;;;1.67;100.00;98152.75;4957749;28;20030;-86
2021/12/17 04:16:23;;;;;;;68.00;33.72;;;;;;;1.75;100.00;98151.75;4944754;28;20046;-85
2021/12/17 04:18:48;;;;;;;120.43;61.17;;;;;;;1.70;100.00;98134.25;4944318;28;20113;-86
2021/12/17 04:21:15;;;;;;;73.95;37.15;;;;;;;1.71;100.00;98110.50;4944597;28;20479;-86
2021/12/17 04:23:53;;;;;;;68.75;34.83;;;;;;;1.81;100.00;98127.03;4944536;28;20483;-87
2021/12/17 04:26:21;;;;;;;71.63;35.45;;;;;;;1.73;100.00;98115.72;4944280;28;20027;-87
2021/12/17 04:28:49;;;;;;;82.93;36.03;;;;;;;1.62;100.00;98098.38;4956825;29;20027;-88
2021/12/17 04:31:17;;;;;;;72.88;35.80;;;;;;;1.87;100.00;98130.44;4924982;29;20093;-86
2021/12/17 04:33:43;;;;;;;68.65;33.25;;;;;;;1.89;100.00;98123.34;4941389;28;20119;-87
2021/12/17 04:36:13;;;;;;;68.88;33.22;;;;;;;1.94;100.00;98123.28;4956991;28;20019;-87
2021/12/17 04:38:39;;;;;;;69.55;33.30;;;;;;;1.94;100.00;98118.84;4945708;28;20022;-81
2021/12/17 04:41:37;;;;;;;69.05;32.08;;;;;;;1.99;100.00;98110.88;4944569;28;20074;-88
2021/12/17 04:44:27;;;;;;;99.65;43.95;;;;;;;1.95;100.00;98125.00;4956475;28;20031;-85
2021/12/17 05:00:02;;;;;;;85.32;41.10;;;;;;;2.10;100.00;98145.81;4958157;28;20026;-84
2021/12/17 05:02:30;;;;;;;89.47;41.17;;;;;;;2.11;100.00;98148.44;4956747;28;20520;-84
2021/12/17 05:05:06;;;;;;;83.38;39.17;;;;;;;2.04;100.00;98143.28;4941108;28;20035;-85
2021/12/17 05:07:33;;;;;;;91.68;42.67;;;;;;;2.16;100.00;98145.69;4941291;28;20027;-85
2021/12/17 05:10:24;;;;;;;96.57;45.60;;;;;;;1.87;100.00;98116.38;4802114;29;3049014;-84
2021/12/17 05:18:37;;;;;;;79.60;36.80;;;;;;;2.00;100.00;98153.03;4910207;29;20102;-85
2021/12/17 05:21:06;;;;;;;60.47;29.55;;;;;;;1.49;100.00;98095.97;4889042;29;20095;-84
2021/12/17 05:23:40;;;;;;;58.42;28.08;;;;;;;1.34;100.00;98060.22;4898452;29;20091;-81
2021/12/17 05:26:09;;;;;;;56.38;28.35;;;;;;;1.57;100.00;98079.09;4911556;29;20139;-84
2021/12/17 05:28:55;;;;;;;58.13;28.95;;;;;;;1.36;100.00;98057.53;4890032;29;20453;-84
2021/12/17 05:31:21;;;;;;;57.63;29.73;;;;;;;1.68;100.00;98101.78;4891685;29;20032;-86
2021/12/17 05:34:18;;;;;;;68.43;33.90;;;;;;;1.62;100.00;98090.47;4916533;29;20488;-84
2021/12/17 05:36:45;;;;;;;68.53;30.58;;;;;;;1.54;100.00;98083.56;4888830;29;20032;-84
2021/12/17 05:39:49;;;;;;;;;;;;;;;;;;;;;
2021/12/17 05:42:27;;;;;;;67.40;33.38;;;;;;;1.37;100.00;98075.97;4914034;29;20024;-84
2021/12/17 05:45:09;;;;;;;74.20;34.78;;;;;;;1.80;100.00;98141.09;4903685;29;20555;-84
2021/12/17 05:47:53;;;;;;;79.05;37.13;;;;;;;1.79;100.00;98129.69;4887755;29;20039;-85
2021/12/17 05:50:30;;;;;;;79.53;38.30;;;;;;;1.56;100.00;98097.59;4904191;29;20515;-84
2021/12/17 05:52:56;;;;;;;67.40;34.30;;;;;;;1.76;100.00;98121.81;4910141;29;20088;-83
2021/12/17 05:55:22;;;;;;;78.13;38.97;;;;;;;1.81;100.00;98127.03;4904783;29;20048;-86
2021/12/17 05:57:57;;;;;;;83.05;38.97;;;;;;;1.51;100.00;98107.34;4892891;29;20036;-85
2021/12/17 06:00:35;;;;;;;93.28;42.53;;;;;;;1.83;100.00;98154.22;4892237;29;20040;-86
2021/12/17 06:03:02;;;;;;;84.55;38.63;;;;;;;1.97;100.00;98162.78;4895690;29;20039;-87
2021/12/17 06:06:49;;;;;;;;;;;;;;;;;;;;;
2021/12/17 06:09:51;;;;;;;95.85;38.65;;;;;;;1.51;100.00;98126.66;4922366;29;20036;-85
2021/12/17 06:19:26;;;;;;;84.75;38.28;;;;;;;1.92;100.00;98183.97;4912802;29;20028;-85
2021/12/17 06:21:52;;;;;;;129.65;54.83;;;;;;;1.59;100.00;98114.25;4847765;29;20665;-85
2021/12/17 06:24:17;;;;;;;259.20;100.32;;;;;;;1.72;100.00;98129.84;4834775;29;20052;-86
2021/12/17 06:26:43;;;;;;;225.05;97.18;;;;;;;1.79;100.00;98116.50;4854183;29;20052;-86
2021/12/17 06:29:09;;;;;;;116.95;52.70;;;;;;;2.04;100.00;98159.13;4854890;29;20049;-83
2021/12/17 06:31:35;;;;;;;126.50;56.70;;;;;;;1.90;100.00;98133.00;4850920;29;20141;-80
2021/12/17 06:34:00;;;;;;;152.25;66.72;;;;;;;1.85;100.00;98116.38;4881169;29;20518;-85
2021/12/17 06:36:26;;;;;;;130.90;60.95;;;;;;;1.95;100.00;98117.09;4839220;29;20057;-85
2021/12/17 06:38:58;;;;;;;141.25;69.55;;;;;;;2.08;100.00;98132.66;4863810;29;20053;-88
2021/12/17 06:41:23;;;;;;;108.55;52.88;;;;;;;2.18;100.00;98128.94;4837315;29;20072;-86
2021/12/17 06:43:49;;;;;;;109.72;52.50;;;;;;;2.08;100.00;98098.38;4863365;29;20068;-86
2021/12/17 06:46:32;;;;;;;112.57;53.63;;;;;;;2.18;100.00;98109.63;4877846;29;20075;-86
2021/12/17 06:49:16;;;;;;;110.03;51.40;;;;;;;2.27;100.00;98124.38;4890409;29;20060;-86
2021/12/17 06:54:53;;;;;;;117.35;53.90;;;;;;;2.43;100.00;98150.44;4902932;29;20088;-87
2021/12/17 07:00:16;;;;;;;95.18;47.65;;;;;;;2.36;100.00;98111.00;4903939;29;20040;-87
2021/12/17 07:11:13;;;;;;;115.90;54.55;;;;;;;2.38;100.00;98115.34;4890799;29;20079;-84
2021/12/17 07:33:07;;;;;;;186.30;91.47;;;;;;;2.50;100.00;98095.75;4894738;29;20104;-87
2021/12/17 07:36:23;;;;;;;125.30;58.40;;;;;;;2.30;100.00;98045.16;4893750;29;20020;-87
2021/12/17 07:38:54;;;;;;;152.23;72.40;;;;;;;2.32;100.00;98044.22;4893739;29;20068;-86
2021/12/17 07:41:25;;;;;;;159.65;73.78;;;;;;;2.37;100.00;98044.97;4900186;29;20058;-85
2021/12/17 07:44:00;;;;;;;139.15;65.07;;;;;;;2.57;100.00;98092.06;4884864;29;20016;-88
2021/12/17 07:47:15;;;;;;;138.73;64.20;;;;;;;2.68;100.00;98101.50;4889054;29;20072;-87
2021/12/17 08:33:06;;;;;;;82.82;39.17;;;;;;;2.96;100.00;98024.25;5531622;23;20052;-80
2021/12/17 08:56:42;;;;;;;84.28;42.15;;;;;;;3.71;100.00;98090.19;5841264;23;20015;-87
2021/12/17 08:59:09;;;;;;;96.25;45.83;;;;;;;3.69;100.00;98063.78;4930886;29;20396;-88
2021/12/17 09:01:37;;;;;;;118.00;57.20;;;;;;;3.79;100.00;98054.69;4919166;29;20419;-87
2021/12/17 09:04:03;;;;;;;105.63;51.97;;;;;;;3.92;100.00;98068.47;4916832;29;20119;-88
2021/12/17 09:06:30;;;;;;;115.88;53.28;;;;;;;3.91;100.00;98047.34;4930181;29;20118;-88
2021/12/17 09:08:56;;;;;;;119.53;57.78;;;;;;;3.75;100.00;98036.31;4927721;29;20106;-87
2021/12/17 09:11:26;;;;;;;130.55;63.88;;;;;;;4.06;100.00;98057.50;4921709;29;20019;-87
2021/12/17 09:13:52;;;;;;;137.38;68.32;;;;;;;4.02;100.00;98039.97;4933402;29;20439;-88
2021/12/17 09:16:20;;;;;;;166.35;74.38;;;;;;;4.37;100.00;98038.03;4935672;29;20062;-87
2021/12/17 09:18:50;;;;;;;144.45;72.53;;;;;;;4.42;100.00;98032.59;4948649;29;20048;-88
2021/12/17 09:21:16;;;;;;;136.73;68.55;;;;;;;4.66;100.00;98038.94;4930409;29;20035;-87
2021/12/17 09:23:42;;;;;;;162.40;75.45;;;;;;;4.77;100.00;98026.22;4920413;29;20031;-87
2021/12/17 09:26:10;;;;;;;153.65;72.05;;;;;;;4.89;100.00;98021.41;4923897;29;20043;-88
2021/12/17 09:28:35;;;;;;;129.63;61.47;;;;;;;4.69;100.00;97981.44;4939687;29;20479;-87
2021/12/17 09:31:06;;;;;;;112.10;54.13;;;;;;;5.04;100.00;98013.88;4918499;29;20038;-87
2021/12/17 09:33:34;;;;;;;75.78;38.60;;;;;;;4.98;100.00;97976.97;4924995;29;20031;-88
2021/12/17 09:36:00;;;;;;;87.95;41.10;;;;;;;5.32;99.18;97991.69;4942708;29;20030;-87
2021/12/17 09:38:26;;;;;;;70.35;35.63;;;;;;;5.47;97.00;97987.66;4928292;29;20035;-88
2021/12/17 09:40:51;;;;;;;87.03;45.40;;;;;;;5.46;95.85;97949.66;4930230;29;20498;-87
2021/12/17 09:43:17;;;;;;;82.68;43.90;;;;;;;5.95;94.74;98001.88;4933105;29;20090;-88
2021/12/17 09:45:45;;;;;;;87.10;45.65;;;;;;;6.35;91.76;97979.13;4923828;29;20042;-87
2021/12/17 09:48:13;;;;;;;99.35;51.55;;;;;;;6.68;88.75;97982.25;4944409;29;20036;-87
2021/12/17 09:50:39;;;;;;;84.60;43.17;;;;;;;7.39;85.01;97953.59;4929422;29;20036;-88
2021/12/17 09:53:05;;;;;;;75.40;38.60;;;;;;;7.86;81.35;97959.50;4927921;29;20038;-87
2021/12/17 09:55:37;;;;;;;69.55;38.78;;;;;;;7.57;82.41;97960.78;4936135;29;20059;-88
2021/12/17 09:58:02;;;;;;;;;;;;;;;7.66;82.33;97956.84;4947107;29;20059;-87
2021/12/17 10:00:28;;;;;;;72.90;38.03;;;;;;;7.58;82.15;97941.22;4932604;29;19915;-84
2021/12/17 10:02:54;;;;;;;74.38;37.97;;;;;;;7.66;81.33;97932.88;4930326;29;20031;-87
2021/12/17 10:05:30;;;;;;;77.38;37.53;;;;;;;7.53;81.11;97919.28;4932981;29;20034;-88
2021/12/17 10:08:03;;;;;;;78.90;41.03;;;;;;;7.23;83.63;97930.38;4927825;29;20028;-87
2021/12/17 10:11:01;;;;;;;80.72;41.50;;;;;;;6.98;85.99;97922.56;4916616;29;20049;-79
2021/12/17 10:13:29;;;;;;;125.95;65.03;;;;;;;6.72;88.30;97923.63;4919986;29;20511;-81
2021/12/17 10:16:07;;;;;;;77.95;42.05;;;;;;;6.48;90.13;97919.28;4933091;29;20027;-81
2021/12/17 10:18:46;;;;;;;71.97;38.58;;;;;;;6.37;92.81;97924.16;4924992;29;20038;-82
2021/12/17 10:21:22;;;;;;;92.25;46.25;;;;;;;6.24;94.67;97906.97;4916770;29;20542;-81
2021/12/17 10:23:50;;;;;;;92.38;46.50;;;;;;;6.29;95.89;97897.03;4916732;29;20036;-80
2021/12/17 10:26:18;;;;;;;93.53;46.60;;;;;;;6.42;95.70;97906.25;4934855;29;20058;-81
2021/12/17 10:29:04;;;;;;;99.72;47.25;;;;;;;6.39;96.09;97885.13;4921143;29;20032;-82
2021/12/17 10:31:33;;;;;;;102.55;47.97;;;;;;;6.51;96.15;97893.47;4932195;29;20510;-87
2021/12/17 10:34:06;;;;;;;83.72;45.85;;;;;;;6.50;96.85;97872.25;4926640;29;20090;-89
2021/12/17 10:36:37;;;;;;;94.63;45.30;;;;;;;6.60;95.77;97852.34;4933588;29;20063;-87
2021/12/17 10:39:24;;;;;;;79.97;41.97;;;;;;;6.82;95.21;97874.47;4936914;29;20483;-86
2021/12/17 10:41:50;;;;;;;82.85;40.03;;;;;;;6.78;94.79;97862.22;4954080;29;20495;-88
2021/12/17 10:44:16;;;;;;;90.88;43.47;;;;;;;6.82;94.50;97858.50;4934132;29;20042;-86
2021/12/17 10:47:17;;;;;;;83.50;41.10;;;;;;;6.74;93.31;97842.00;4935267;29;20090;-87
2021/12/17 10:49:54;;;;;;;84.20;40.88;;;;;;;6.65;94.24;97842.38;4929787;29;20035;-88
2021/12/17 10:52:27;;;;;;;78.13;40.40;;;;;;;6.75;95.20;97862.34;4921293;29;20127;-89
2021/12/17 10:58:15;;;;;;;90.75;48.20;;;;;;;6.49;96.42;97826.22;4942038;28;20058;-89
2021/12/17 11:00:59;;;;;;;121.18;60.25;;;;;;;6.61;96.27;97854.09;4930070;29;20455;-87
2021/12/17 11:03:38;;;;;;;118.10;60.67;;;;;;;6.29;97.27;97802.28;4948042;29;20038;-87
2021/12/17 11:06:04;;;;;;;109.25;57.58;;;;;;;6.22;97.79;97826.47;4925310;29;20046;-88
2021/12/17 11:08:33;;;;;;;104.97;55.60;;;;;;;6.16;98.97;97824.94;4930899;29;20038;-88
2021/12/17 11:11:08;;;;;;;110.35;53.00;;;;;;;6.11;100.00;97842.84;4934923;29;20442;-88
2021/12/17 11:13:36;;;;;;;100.03;51.65;;;;;;;5.87;100.00;97838.50;4944580;29;20040;-89
2021/12/17 11:16:02;;;;;;;97.88;52.80;;;;;;;5.89;100.00;97856.09;4922398;29;20039;-87
2021/12/17 11:18:28;;;;;;;103.68;54.38;;;;;;;5.66;100.00;97832.16;4930348;29;20035;-89
2021/12/17 11:20:55;;;;;;;103.80;55.53;;;;;;;5.52;100.00;97826.53;4932059;29;20483;-89
2021/12/17 11:23:23;;;;;;;106.93;55.22;;;;;;;5.63;100.00;97834.94;4932231;29;20023;-88
2021/12/17 11:29:10;;;;;;;96.78;52.35;;;;;;;5.34;100.00;97806.00;4949521;29;20062;-92
2021/12/17 11:31:36;;;;;;;107.97;56.83;;;;;;;5.65;100.00;97833.13;4927056;29;20479;-92
2021/12/17 11:34:05;;;;;;;115.25;56.88;;;;;;;5.54;100.00;97814.06;4934915;29;20039;-92
2021/12/17 11:40:00;;;;;;;157.88;82.32;;;;;;;5.26;100.00;97785.06;4952412;29;20074;-91
2021/12/17 11:43:01;;;;;;;161.13;86.45;;;;;;;5.16;100.00;97789.00;4931143;29;20024;-92
2021/12/17 11:45:29;;;;;;;159.00;82.07;;;;;;;4.89;100.00;97748.44;4932914;29;20036;-92
2021/12/17 11:48:21;;;;;;;154.93;84.05;;;;;;;4.77;100.00;97719.72;4930902;29;20036;-91
2021/12/17 11:51:20;;;;;;;166.55;87.15;;;;;;;5.07;100.00;97783.16;4928808;29;20065;-91
2021/12/17 11:53:58;;;;;;;142.40;77.05;;;;;;;5.35;100.00;97818.34;4939649;29;20042;-91
2021/12/17 11:56:33;;;;;;;139.75;73.22;;;;;;;5.37;100.00;97811.19;4936778;29;20031;-89
2021/12/17 11:58:59;;;;;;;9.90;7.28;;;;;;;5.28;100.00;97785.00;4931275;29;20040;-91
2021/12/17 12:01:48;;;;;;;14.13;9.18;;;;;;;5.44;100.00;97812.69;4917485;29;20521;-90
2021/12/17 12:04:30;;;;;;;11.10;7.45;;;;;;;5.24;100.00;97778.97;4888154;29;20094;-91
2021/12/17 12:07:05;;;;;;;17.20;10.73;;;;;;;5.30;100.00;97801.72;4932153;29;20031;-90
2021/12/17 12:09:57;;;;;;;12.52;6.95;;;;;;;5.49;100.00;97808.06;4893595;29;20035;-88
2021/12/17 12:12:47;;;;;;;10.60;7.88;;;;;;;5.53;100.00;97816.78;4907516;29;20042;-89
2021/12/17 12:15:24;;;;;;;18.50;7.95;;;;;;;5.32;100.00;97810.50;4930248;29;20055;-89
2021/12/17 12:18:08;;;;;;;18.02;10.07;;;;;;;5.27;100.00;97815.09;4940157;29;20015;-90
2021/12/17 12:21:02;;;;;;;7.32;4.60;;;;;;;5.24;100.00;97804.59;4942527;29;20035;-90
2021/12/17 12:23:40;;;;;;;9.80;4.80;;;;;;;5.25;100.00;97814.28;4891183;29;20039;-89
2021/12/17 12:26:13;;;;;;;7.00;3.97;;;;;;;5.40;100.00;97806.66;4964192;29;20063;-91
2021/12/17 12:28:44;;;;;;;11.95;4.80;;;;;;;5.45;100.00;97804.66;4939112;29;20039;-89
2021/12/17 12:31:17;;;;;;;8.90;5.27;;;;;;;5.39;100.00;97794.28;4938799;29;20050;-91
2021/12/17 12:34:03;;;;;;;6.43;4.13;;;;;;;5.42;100.00;97783.56;4944503;29;20031;-89
2021/12/17 12:36:55;;;;;;;13.77;6.55;;;;;;;5.48;100.00;97785.13;4940876;29;20046;-90
2021/12/17 12:39:42;;;;;;;5.43;3.90;;;;;;;5.36;100.00;97767.03;4915588;29;20124;-92
2021/12/17 12:42:19;;;;;;;9.90;6.97;;;;;;;5.43;100.00;97800.34;4906927;29;20048;-90
2021/12/17 12:44:45;;;;;;;6.00;4.88;;;;;;;5.25;100.00;97790.44;4931609;29;20038;-90
2021/12/17 12:47:23;;;;;;;18.50;6.78;;;;;;;5.35;100.00;97799.78;4933025;29;20024;-90
2021/12/17 12:49:54;;;;;;;13.82;7.28;;;;;;;5.38;100.00;97803.16;4926989;29;20027;-89
2021/12/17 12:52:34;;;;;;;7.03;6.30;;;;;;;5.38;100.00;97797.03;4925351;29;20498;-89
2021/12/17 13:02:21;;;;;;;6.80;2.45;;;;;;;5.07;100.00;97796.41;4939364;29;20091;-88
2021/12/17 13:04:46;;;;;;;3.75;3.33;;;;;;;4.83;100.00;97756.59;4927569;29;20042;-88
2021/12/17 13:07:15;;;;;;;5.45;2.20;;;;;;;4.76;100.00;97749.81;4943271;29;20020;-88
2021/12/17 13:09:42;;;;;;;2.55;2.35;;;;;;;4.70;100.00;97770.34;4927419;29;20034;-88
2021/12/17 13:12:10;;;;;;;5.50;2.65;;;;;;;4.66;100.00;97755.47;4937452;29;20134;-87
2021/12/17 13:14:56;;;;;;;3.13;2.25;;;;;;;4.56;100.00;97762.88;4925172;29;20500;-88
2021/12/17 13:20:04;;;;;;;4.18;3.00;;;;;;;4.59;100.00;97777.78;4927400;29;20163;-89
2021/12/17 13:22:59;;;;;;;1.73;1.60;;;;;;;4.29;100.00;97761.19;4951515;29;20032;-87
2021/12/17 13:25:26;;;;;;;1.05;0.73;;;;;;;3.92;100.00;97726.25;4905299;29;20036;-87
2021/12/17 13:27:55;;;;;;;1.85;1.75;;;;;;;4.05;100.00;97764.66;4924746;29;20040;-88
2021/12/17 13:30:25;;;;;;;0.98;0.98;;;;;;;3.75;100.00;97764.69;4923461;29;20138;-87
2021/12/17 13:32:52;;;;;;;0.98;0.95;;;;;;;3.87;100.00;97779.34;4939514;29;20063;-87
2021/12/17 13:35:18;;;;;;;1.08;0.95;;;;;;;3.76;100.00;97761.16;4924611;29;20035;-87
2021/12/17 13:37:44;;;;;;;0.75;0.75;;;;;;;3.57;100.00;97752.03;4924609;29;20556;-88
2021/12/17 13:40:11;;;;;;;1.70;1.60;;;;;;;3.78;100.00;97783.13;4924478;29;20043;-88
2021/12/17 13:42:42;;;;;;;22.63;10.70;;;;;;;3.69;100.00;97762.25;4920873;29;20036;-87
2021/12/17 13:45:13;;;;;;;12.20;7.45;;;;;;;3.79;100.00;97782.22;4905944;29;20118;-88
2021/12/17 13:47:48;;;;;;;4.57;3.42;;;;;;;3.72;100.00;97779.81;4929038;29;20031;-88
2021/12/17 13:50:28;;;;;;;3.97;2.17;;;;;;;3.83;100.00;97806.78;4939032;29;20031;-88
2021/12/17 13:53:02;;;;;;;3.20;2.33;;;;;;;3.89;100.00;97796.00;4958030;29;20067;-88
2021/12/17 13:55:59;;;;;;;4.68;3.50;;;;;;;3.72;100.00;97775.38;4941102;29;20178;-88
2021/12/17 13:58:25;;;;;;;5.35;4.43;;;;;;;3.72;100.00;97783.31;4905287;29;20101;-86
2021/12/17 14:00:57;;;;;;;1.90;1.77;;;;;;;3.88;100.00;97809.31;4905305;29;20040;-88
2021/12/17 14:03:32;;;;;;;3.33;3.08;;;;;;;3.92;100.00;97806.50;4892357;29;20028;-88
2021/12/17 14:06:09;;;;;;;3.33;2.92;;;;;;;3.90;100.00;97813.63;4907798;29;20063;-87
2021/12/17 14:08:39;;;;;;;1.45;1.30;;;;;;;3.39;100.00;97747.31;4913304;29;20028;-87
2021/12/17 14:11:21;;;;;;;5.03;2.28;;;;;;;3.28;100.00;97741.50;4942702;29;20031;-86
2021/12/17 14:16:47;;;;;;;;;;;;;;;;;;;;;
2021/12/17 14:19:13;;;;;;;2.90;2.67;;;;;;;3.33;100.00;97784.53;4944916;29;20110;-87
2021/12/17 14:22:18;;;;;;;3.90;3.50;;;;;;;3.35;100.00;97819.72;4927362;29;20122;-87
2021/12/17 14:28:13;;;;;;;3.70;3.17;;;;;;;3.13;100.00;97814.19;4959635;29;20454;-87
2021/12/17 14:30:40;;;;;;;4.18;2.90;;;;;;;2.85;100.00;97785.94;4938749;29;20031;-88
2021/12/17 14:33:13;;;;;;;2.75;2.55;;;;;;;2.74;100.00;97784.44;4907399;29;20480;-89
2021/12/17 14:35:48;;;;;;;3.08;2.25;;;;;;;2.92;100.00;97821.84;4910192;29;20392;-86
2021/12/17 14:38:16;;;;;;;2.92;2.67;;;;;;;2.88;100.00;97821.06;4925361;29;20505;-88
2021/12/17 14:43:24;;;;;;;10.82;5.13;;;;;;;2.64;100.00;97790.91;4942464;29;20031;-87
2021/12/17 14:45:51;;;;;;;;;;;;;;;2.87;100.00;97832.53;4942439;29;20056;-89
2021/12/17 14:48:29;;;;;;;1.75;1.65;;;;;;;2.73;100.00;97830.28;4926643;29;19959;-89
2021/12/17 15:02:24;;;;;;;7.85;3.92;;;;;;;2.71;100.00;97818.84;4938319;29;20034;-86
2021/12/17 15:04:49;;;;;;;5.45;4.90;;;;;;;2.78;100.00;97821.34;4949965;29;20045;-86
2021/12/17 15:07:16;;;;;;;3.88;3.53;;;;;;;2.86;100.00;97812.28;4927101;29;20035;-88
2021/12/17 15:09:45;;;;;;;8.13;5.15;;;;;;;2.88;100.00;97818.41;4931131;29;20062;-88
2021/12/17 15:14:58;;;;;;;4.65;3.63;;;;;;;3.00;100.00;97838.34;4945487;29;20036;-86
2021/12/17 15:17:24;;;;;;;10.93;7.25;;;;;;;3.07;100.00;97858.41;4924420;29;20023;-88
2021/12/17 15:19:53;;;;;;;19.95;7.93;;;;;;;2.69;100.00;97790.75;4925247;29;20059;-89
2021/12/17 15:26:42;;;;;;;6.20;3.60;;;;;;;3.34;100.00;97875.28;4941578;29;20058;-88
2021/12/17 15:39:48;;;;;;;13.35;6.78;;;;;;;3.14;100.00;97797.41;4903686;29;20051;-88
2021/12/17 15:42:14;;;;;;;17.42;9.65;;;;;;;3.49;100.00;97869.53;4932117;29;20027;-87
2021/12/17 15:44:40;;;;;;;14.90;11.73;;;;;;;3.52;100.00;97869.44;4926435;29;20121;-86
2021/12/17 15:47:08;;;;;;;18.80;10.68;;;;;;;3.28;100.00;97816.38;4928332;29;20042;-88
2021/12/17 15:49:35;;;;;;;6.82;5.47;;;;;;;3.18;100.00;97801.69;4937299;29;20035;-89
2021/12/17 15:52:01;;;;;;;5.72;5.13;;;;;;;3.56;100.00;97873.75;4922048;29;20447;-88
2021/12/17 15:54:27;;;;;;;7.05;5.00;;;;;;;3.53;100.00;97866.78;4932307;29;20038;-89
2021/12/17 15:56:53;;;;;;;8.50;6.47;;;;;;;3.38;100.00;97846.06;4954185;29;20427;-89
2021/12/17 15:59:18;;;;;;;12.10;8.10;;;;;;;3.47;100.00;97845.81;4947054;29;20031;-89
2021/12/17 16:01:58;;;;;;;10.85;7.30;;;;;;;3.42;100.00;97847.69;4928088;29;20019;-88
2021/12/17 16:04:43;;;;;;;8.85;6.35;;;;;;;3.13;100.00;97797.47;4946972;29;20032;-88
2021/12/17 16:07:17;;;;;;;4.22;3.83;;;;;;;3.36;100.00;97853.16;4922972;29;20045;-88
2021/12/17 16:18:54;;;;;;;9.35;5.63;;;;;;;3.28;100.00;97842.81;4957102;29;20023;-90
2021/12/17 16:24:22;;;;;;;4.90;4.40;;;;;;;3.54;100.00;97834.13;4922982;29;20047;-88
2021/12/17 16:26:54;;;;;;;12.27;7.20;;;;;;;3.60;100.00;97841.03;4953250;29;20035;-90
2021/12/17 16:29:20;;;;;;;9.02;6.68;;;;;;;3.59;100.00;97849.88;4941703;29;20027;-89
2021/12/17 16:32:12;;;;;;;11.30;7.20;;;;;;;3.27;100.00;97816.41;4942760;29;20046;-90